sensor_id;sensor_type;location;lat;lon;timestamp;pressure;altitude;pressure_sealevel;temperature;humidity
61337;BME280;47212;41.326;2.104;2024-01-30T00:00:03;103126.72;;;14.35;90.88
61337;BME280;47212;41.326;2.104;2024-01-30T00:05:37;103134.50;;;14.38;90.93
61337;BME280;47212;41.326;2.104;2024-01-30T00:11:40;103125.66;;;14.36;90.73
61337;BME280;47212;41.326;2.104;2024-01-30T00:16:49;103122.94;;;14.36;90.83
61337;BME280;47212;41.326;2.104;2024-01-30T00:21:54;103125.06;;;14.34;90.75
61337;BME280;47212;41.326;2.104;2024-01-30T00:26:56;103128.88;;;14.33;90.52
61337;BME280;47212;41.326;2.104;2024-01-30T00:31:59;103116.22;;;14.32;90.59
61337;BME280;47212;41.326;2.104;2024-01-30T00:38:57;103114.56;;;14.31;90.58
61337;BME280;47212;41.326;2.104;2024-01-30T00:44:00;103107.63;;;14.28;90.72
61337;BME280;47212;41.326;2.104;2024-01-30T00:49:02;103104.53;;;14.25;91.15
61337;BME280;47212;41.326;2.104;2024-01-30T00:54:08;103103.06;;;14.22;90.19
61337;BME280;47212;41.326;2.104;2024-01-30T00:59:11;103097.84;;;14.21;90.21
61337;BME280;47212;41.326;2.104;2024-01-30T01:04:13;103106.03;;;14.21;90.07
61337;BME280;47212;41.326;2.104;2024-01-30T01:09:15;103098.91;;;14.20;89.95
61337;BME280;47212;41.326;2.104;2024-01-30T01:14:18;103102.69;;;14.19;89.79
61337;BME280;47212;41.326;2.104;2024-01-30T01:19:21;103092.81;;;14.18;89.74
61337;BME280;47212;41.326;2.104;2024-01-30T01:24:23;103087.34;;;14.18;89.41
61337;BME280;47212;41.326;2.104;2024-01-30T01:29:26;103089.47;;;14.16;89.48
61337;BME280;47212;41.326;2.104;2024-01-30T01:34:36;103091.59;;;14.14;88.91
61337;BME280;47212;41.326;2.104;2024-01-30T01:39:39;103088.25;;;14.12;88.98
61337;BME280;47212;41.326;2.104;2024-01-30T01:44:41;103085.75;;;14.10;89.06
61337;BME280;47212;41.326;2.104;2024-01-30T01:49:43;103091.44;;;14.09;89.60
61337;BME280;47212;41.326;2.104;2024-01-30T01:54:45;103092.50;;;14.08;88.68
61337;BME280;47212;41.326;2.104;2024-01-30T01:59:48;103082.00;;;14.05;88.68
61337;BME280;47212;41.326;2.104;2024-01-30T02:05:13;103078.66;;;14.02;88.66
61337;BME280;47212;41.326;2.104;2024-01-30T02:10:15;103079.72;;;14.01;88.54
61337;BME280;47212;41.326;2.104;2024-01-30T02:15:17;103077.44;;;13.98;88.43
61337;BME280;47212;41.326;2.104;2024-01-30T02:20:21;103064.81;;;13.97;88.25
61337;BME280;47212;41.326;2.104;2024-01-30T02:25:36;103058.97;;;13.94;88.12
61337;BME280;47212;41.326;2.104;2024-01-30T02:30:40;103069.09;;;13.93;88.01
61337;BME280;47212;41.326;2.104;2024-01-30T02:35:42;103057.28;;;13.93;88.13
61337;BME280;47212;41.326;2.104;2024-01-30T02:40:45;103057.28;;;13.93;88.06
61337;BME280;47212;41.326;2.104;2024-01-30T02:45:54;103054.19;;;13.89;88.17
61337;BME280;47212;41.326;2.104;2024-01-30T02:50:56;103062.63;;;13.88;88.03
61337;BME280;47212;41.326;2.104;2024-01-30T02:56:08;103064.94;;;13.84;88.15
61337;BME280;47212;41.326;2.104;2024-01-30T03:01:12;103052.56;;;13.82;87.82
61337;BME280;47212;41.326;2.104;2024-01-30T03:06:14;103057.66;;;13.78;87.72
61337;BME280;47212;41.326;2.104;2024-01-30T03:11:19;103054.75;;;13.73;87.51
61337;BME280;47212;41.326;2.104;2024-01-30T03:16:21;103058.78;;;13.70;87.23
61337;BME280;47212;41.326;2.104;2024-01-30T03:21:24;103051.63;;;13.69;87.01
61337;BME280;47212;41.326;2.104;2024-01-30T03:26:32;103050.81;;;13.69;86.87
61337;BME280;47212;41.326;2.104;2024-01-30T03:31:34;103053.53;;;13.69;86.82
61337;BME280;47212;41.326;2.104;2024-01-30T03:36:37;103051.25;;;13.66;86.14
61337;BME280;47212;41.326;2.104;2024-01-30T03:41:42;103056.13;;;13.64;86.25
61337;BME280;47212;41.326;2.104;2024-01-30T03:46:46;103054.66;;;13.61;86.10
61337;BME280;47212;41.326;2.104;2024-01-30T03:51:54;103057.63;;;13.60;85.76
61337;BME280;47212;41.326;2.104;2024-01-30T03:56:56;103054.50;;;13.56;85.89
61337;BME280;47212;41.326;2.104;2024-01-30T04:01:59;103054.75;;;13.55;85.19
61337;BME280;47212;41.326;2.104;2024-01-30T04:07:02;103053.06;;;13.54;85.08
61337;BME280;47212;41.326;2.104;2024-01-30T04:12:04;103055.19;;;13.52;85.06
61337;BME280;47212;41.326;2.104;2024-01-30T04:17:07;103054.59;;;13.50;84.67
61337;BME280;47212;41.326;2.104;2024-01-30T04:22:09;103053.34;;;13.46;84.44
61337;BME280;47212;41.326;2.104;2024-01-30T04:27:11;103056.53;;;13.43;84.48
61337;BME280;47212;41.326;2.104;2024-01-30T04:32:13;103053.19;;;13.41;84.12
61337;BME280;47212;41.326;2.104;2024-01-30T04:37:15;103053.03;;;13.35;83.74
61337;BME280;47212;41.326;2.104;2024-01-30T04:42:18;103053.25;;;13.34;84.32
61337;BME280;47212;41.326;2.104;2024-01-30T04:47:20;103053.72;;;13.31;84.24
61337;BME280;47212;41.326;2.104;2024-01-30T04:52:32;103057.28;;;13.31;83.68
61337;BME280;47212;41.326;2.104;2024-01-30T04:57:34;103055.59;;;13.30;83.73
61337;BME280;47212;41.326;2.104;2024-01-30T05:08:51;103065.31;;;13.26;83.36
61337;BME280;47212;41.326;2.104;2024-01-30T05:13:57;103064.09;;;13.22;83.34
61337;BME280;47212;41.326;2.104;2024-01-30T05:19:02;103062.41;;;13.21;83.50
61337;BME280;47212;41.326;2.104;2024-01-30T05:24:17;103062.22;;;13.16;82.75
61337;BME280;47212;41.326;2.104;2024-01-30T05:29:29;103062.66;;;13.13;83.15
61337;BME280;47212;41.326;2.104;2024-01-30T05:34:38;103071.94;;;13.12;83.58
61337;BME280;47212;41.326;2.104;2024-01-30T05:39:48;103080.13;;;13.12;83.18
61337;BME280;47212;41.326;2.104;2024-01-30T05:44:56;103079.53;;;13.10;83.04
61337;BME280;47212;41.326;2.104;2024-01-30T05:50:00;103079.75;;;13.08;83.36
61337;BME280;47212;41.326;2.104;2024-01-30T05:55:11;103090.06;;;13.06;83.38
61337;BME280;47212;41.326;2.104;2024-01-30T06:00:16;103094.31;;;13.02;83.58
61337;BME280;47212;41.326;2.104;2024-01-30T06:05:33;103103.13;;;12.98;83.36
61337;BME280;47212;41.326;2.104;2024-01-30T06:10:38;103105.69;;;12.93;82.97
61337;BME280;47212;41.326;2.104;2024-01-30T06:15:47;103107.19;;;12.89;83.04
61337;BME280;47212;41.326;2.104;2024-01-30T06:20:52;103114.38;;;12.83;82.88
61337;BME280;47212;41.326;2.104;2024-01-30T06:25:54;103117.34;;;12.82;83.50
61337;BME280;47212;41.326;2.104;2024-01-30T06:31:11;103112.53;;;12.77;83.10
61337;BME280;47212;41.326;2.104;2024-01-30T06:36:22;103120.31;;;12.73;83.17
61337;BME280;47212;41.326;2.104;2024-01-30T06:41:44;103131.69;;;12.70;82.99
61337;BME280;47212;41.326;2.104;2024-01-30T06:46:54;103129.41;;;12.67;83.42
61337;BME280;47212;41.326;2.104;2024-01-30T06:51:58;103126.03;;;12.65;82.72
61337;BME280;47212;41.326;2.104;2024-01-30T06:57:05;103130.91;;;12.63;82.74
61337;BME280;47212;41.326;2.104;2024-01-30T07:02:35;103142.03;;;12.62;83.02
61337;BME280;47212;41.326;2.104;2024-01-30T07:07:44;103139.31;;;12.62;83.21
61337;BME280;47212;41.326;2.104;2024-01-30T07:13:00;103140.13;;;12.69;82.70
61337;BME280;47212;41.326;2.104;2024-01-30T07:18:19;103151.66;;;12.71;81.58
61337;BME280;47212;41.326;2.104;2024-01-30T07:23:24;103162.19;;;12.67;82.13
61337;BME280;47212;41.326;2.104;2024-01-30T07:28:31;103162.19;;;12.67;81.96
61337;BME280;47212;41.326;2.104;2024-01-30T07:33:40;103163.00;;;12.74;81.67
61337;BME280;47212;41.326;2.104;2024-01-30T07:38:50;103161.72;;;12.77;81.51
61337;BME280;47212;41.326;2.104;2024-01-30T07:43:59;103176.84;;;12.80;81.97
61337;BME280;47212;41.326;2.104;2024-01-30T07:49:09;103178.09;;;12.84;81.61
61337;BME280;47212;41.326;2.104;2024-01-30T07:54:13;103181.63;;;12.91;81.55
61337;BME280;47212;41.326;2.104;2024-01-30T07:59:32;103188.31;;;13.01;81.26
61337;BME280;47212;41.326;2.104;2024-01-30T08:04:40;103186.78;;;13.12;81.25
61337;BME280;47212;41.326;2.104;2024-01-30T08:09:58;103190.97;;;13.21;80.74
61337;BME280;47212;41.326;2.104;2024-01-30T08:15:05;103202.63;;;13.91;79.10
61337;BME280;47212;41.326;2.104;2024-01-30T08:20:13;103206.59;;;13.95;78.35
61337;BME280;47212;41.326;2.104;2024-01-30T08:25:21;103222.91;;;13.84;78.73
61337;BME280;47212;41.326;2.104;2024-01-30T08:30:30;103222.50;;;13.80;78.97
61337;BME280;47212;41.326;2.104;2024-01-30T08:35:36;103222.50;;;13.80;78.41
61337;BME280;47212;41.326;2.104;2024-01-30T08:40:45;103236.06;;;14.00;78.20
61337;BME280;47212;41.326;2.104;2024-01-30T08:45:51;103232.63;;;14.05;78.13
61337;BME280;47212;41.326;2.104;2024-01-30T08:50:59;103239.13;;;14.10;77.77
61337;BME280;47212;41.326;2.104;2024-01-30T08:56:07;103242.25;;;14.14;77.25
61337;BME280;47212;41.326;2.104;2024-01-30T09:01:17;103243.00;;;14.21;77.26
61337;BME280;47212;41.326;2.104;2024-01-30T09:06:23;103249.81;;;14.37;76.96
61337;BME280;47212;41.326;2.104;2024-01-30T09:11:31;103252.28;;;14.45;76.49
61337;BME280;47212;41.326;2.104;2024-01-30T09:16:41;103246.56;;;14.46;75.80
61337;BME280;47212;41.326;2.104;2024-01-30T09:21:46;103249.22;;;14.53;75.35
61337;BME280;47212;41.326;2.104;2024-01-30T09:26:54;103252.97;;;14.58;75.28
61337;BME280;47212;41.326;2.104;2024-01-30T09:32:03;103256.31;;;14.60;75.80
61337;BME280;47212;41.326;2.104;2024-01-30T09:37:11;103259.22;;;14.65;75.46
61337;BME280;47212;41.326;2.104;2024-01-30T09:42:36;103261.06;;;14.90;74.20
61337;BME280;47212;41.326;2.104;2024-01-30T09:48:04;103261.13;;;15.02;73.81
61337;BME280;47212;41.326;2.104;2024-01-30T09:53:26;103267.22;;;15.04;73.44
61337;BME280;47212;41.326;2.104;2024-01-30T09:58:32;103269.56;;;15.00;73.70
61337;BME280;47212;41.326;2.104;2024-01-30T10:03:38;103276.28;;;15.04;74.12
61337;BME280;47212;41.326;2.104;2024-01-30T10:08:52;103280.22;;;15.08;74.00
61337;BME280;47212;41.326;2.104;2024-01-30T10:13:59;103281.44;;;15.12;73.86
61337;BME280;47212;41.326;2.104;2024-01-30T10:19:09;103287.69;;;15.19;73.71
61337;BME280;47212;41.326;2.104;2024-01-30T10:24:18;103291.53;;;15.30;73.20
61337;BME280;47212;41.326;2.104;2024-01-30T10:29:20;103282.50;;;15.41;73.63
61337;BME280;47212;41.326;2.104;2024-01-30T10:34:25;103278.38;;;15.50;73.19
61337;BME280;47212;41.326;2.104;2024-01-30T10:39:38;103282.28;;;15.61;72.03
61337;BME280;47212;41.326;2.104;2024-01-30T10:45:05;103279.00;;;15.94;70.99
61337;BME280;47212;41.326;2.104;2024-01-30T10:50:19;103277.59;;;16.27;70.02
61337;BME280;47212;41.326;2.104;2024-01-30T10:55:30;103272.13;;;16.50;68.73
61337;BME280;47212;41.326;2.104;2024-01-30T11:00:36;103260.28;;;16.73;68.37
61337;BME280;47212;41.326;2.104;2024-01-30T11:05:42;103263.63;;;16.75;67.22
61337;BME280;47212;41.326;2.104;2024-01-30T11:10:56;103258.72;;;17.05;66.30
61337;BME280;47212;41.326;2.104;2024-01-30T11:16:11;103248.53;;;17.46;64.34
61337;BME280;47212;41.326;2.104;2024-01-30T11:21:19;103252.03;;;17.41;65.88
61337;BME280;47212;41.326;2.104;2024-01-30T11:26:30;103239.75;;;17.20;64.10
61337;BME280;47212;41.326;2.104;2024-01-30T11:31:37;103229.16;;;16.84;64.80
61337;BME280;47212;41.326;2.104;2024-01-30T11:36:43;103232.41;;;16.69;64.69
61337;BME280;47212;41.326;2.104;2024-01-30T11:41:53;103218.06;;;16.67;65.02
61337;BME280;47212;41.326;2.104;2024-01-30T11:47:09;103214.94;;;16.64;62.87
61337;BME280;47212;41.326;2.104;2024-01-30T11:52:20;103209.34;;;16.59;63.34
61337;BME280;47212;41.326;2.104;2024-01-30T11:57:45;103202.63;;;16.78;63.04
61337;BME280;47212;41.326;2.104;2024-01-30T12:03:04;103200.16;;;16.93;62.80
61337;BME280;47212;41.326;2.104;2024-01-30T12:08:18;103188.81;;;16.90;61.07
61337;BME280;47212;41.326;2.104;2024-01-30T12:13:31;103183.38;;;17.23;59.76
61337;BME280;47212;41.326;2.104;2024-01-30T12:18:41;103182.56;;;17.68;58.65
61337;BME280;47212;41.326;2.104;2024-01-30T12:23:56;103171.81;;;18.05;57.81
61337;BME280;47212;41.326;2.104;2024-01-30T12:29:10;103159.75;;;18.50;56.76
61337;BME280;47212;41.326;2.104;2024-01-30T12:34:17;103160.91;;;18.75;56.75
61337;BME280;47212;41.326;2.104;2024-01-30T12:39:22;103153.69;;;18.69;55.79
61337;BME280;47212;41.326;2.104;2024-01-30T12:44:36;103148.59;;;18.39;56.24
61337;BME280;47212;41.326;2.104;2024-01-30T12:49:45;103145.78;;;18.34;56.61
61337;BME280;47212;41.326;2.104;2024-01-30T12:54:54;103146.16;;;18.21;55.51
61337;BME280;47212;41.326;2.104;2024-01-30T13:00:15;103139.03;;;18.47;55.98
61337;BME280;47212;41.326;2.104;2024-01-30T13:05:23;103130.78;;;18.69;55.98
61337;BME280;47212;41.326;2.104;2024-01-30T13:10:39;103121.41;;;18.70;56.43
61337;BME280;47212;41.326;2.104;2024-01-30T13:15:49;103123.19;;;18.81;55.82
61337;BME280;47212;41.326;2.104;2024-01-30T13:21:04;103126.72;;;18.55;56.42
61337;BME280;47212;41.326;2.104;2024-01-30T13:26:15;103127.09;;;18.20;56.47
61337;BME280;47212;41.326;2.104;2024-01-30T13:31:21;103127.59;;;17.95;57.33
61337;BME280;47212;41.326;2.104;2024-01-30T13:36:38;103120.91;;;17.91;57.14
61337;BME280;47212;41.326;2.104;2024-01-30T13:41:49;103124.09;;;17.82;58.24
61337;BME280;47212;41.326;2.104;2024-01-30T13:47:00;103131.56;;;18.04;58.32
61337;BME280;47212;41.326;2.104;2024-01-30T13:52:05;103125.78;;;18.22;57.81
61337;BME280;47212;41.326;2.104;2024-01-30T13:57:29;103118.09;;;18.24;56.22
61337;BME280;47212;41.326;2.104;2024-01-30T14:02:42;103115.44;;;18.34;56.07
61337;BME280;47212;41.326;2.104;2024-01-30T14:07:59;103133.16;;;18.00;55.88
61337;BME280;47212;41.326;2.104;2024-01-30T14:13:13;103130.22;;;17.68;55.52
61337;BME280;47212;41.326;2.104;2024-01-30T14:18:18;103139.03;;;17.53;56.38
61337;BME280;47212;41.326;2.104;2024-01-30T14:23:30;103133.38;;;17.43;55.86
61337;BME280;47212;41.326;2.104;2024-01-30T14:28:40;103129.66;;;17.20;56.90
61337;BME280;47212;41.326;2.104;2024-01-30T14:33:49;103139.41;;;17.11;57.74
61337;BME280;47212;41.326;2.104;2024-01-30T14:39:16;103133.16;;;16.99;57.16
61337;BME280;47212;41.326;2.104;2024-01-30T14:44:23;103133.78;;;16.90;57.91
61337;BME280;47212;41.326;2.104;2024-01-30T14:49:42;103136.75;;;16.71;58.73
61337;BME280;47212;41.326;2.104;2024-01-30T14:54:51;103141.66;;;16.58;59.58
61337;BME280;47212;41.326;2.104;2024-01-30T15:00:06;103140.94;;;16.62;60.44
61337;BME280;47212;41.326;2.104;2024-01-30T15:05:42;103140.44;;;16.77;60.56
61337;BME280;47212;41.326;2.104;2024-01-30T15:10:56;103135.31;;;16.69;59.76
61337;BME280;47212;41.326;2.104;2024-01-30T15:16:07;103149.69;;;16.59;60.07
61337;BME280;47212;41.326;2.104;2024-01-30T15:21:33;103152.31;;;16.42;60.54
61337;BME280;47212;41.326;2.104;2024-01-30T15:26:47;103146.38;;;16.34;61.44
61337;BME280;47212;41.326;2.104;2024-01-30T15:32:02;103159.31;;;16.21;61.11
61337;BME280;47212;41.326;2.104;2024-01-30T15:37:21;103161.97;;;16.05;60.95
61337;BME280;47212;41.326;2.104;2024-01-30T15:42:54;103150.75;;;15.83;61.46
61337;BME280;47212;41.326;2.104;2024-01-30T15:47:59;103149.78;;;15.77;61.06
61337;BME280;47212;41.326;2.104;2024-01-30T15:53:05;103152.19;;;15.74;61.38
61337;BME280;47212;41.326;2.104;2024-01-30T15:58:14;103155.03;;;15.67;61.83
61337;BME280;47212;41.326;2.104;2024-01-30T16:03:23;103157.94;;;15.54;62.54
61337;BME280;47212;41.326;2.104;2024-01-30T16:08:35;103161.53;;;15.43;63.20
61337;BME280;47212;41.326;2.104;2024-01-30T16:13:43;103163.66;;;15.41;63.76
61337;BME280;47212;41.326;2.104;2024-01-30T16:18:51;103160.78;;;15.36;64.24
61337;BME280;47212;41.326;2.104;2024-01-30T16:24:01;103172.94;;;15.28;64.93
61337;BME280;47212;41.326;2.104;2024-01-30T16:29:07;103177.94;;;15.19;64.91
61337;BME280;47212;41.326;2.104;2024-01-30T16:34:12;103175.06;;;15.14;64.60
61337;BME280;47212;41.326;2.104;2024-01-30T16:39:25;103183.16;;;15.09;64.63
61337;BME280;47212;41.326;2.104;2024-01-30T16:44:36;103192.91;;;15.05;65.23
61337;BME280;47212;41.326;2.104;2024-01-30T16:49:43;103186.22;;;15.01;65.55
61337;BME280;47212;41.326;2.104;2024-01-30T16:54:52;103195.06;;;15.03;66.27
61337;BME280;47212;41.326;2.104;2024-01-30T17:00:08;103201.84;;;15.01;66.21
61337;BME280;47212;41.326;2.104;2024-01-30T17:05:15;103201.47;;;14.97;66.50
61337;BME280;47212;41.326;2.104;2024-01-30T17:10:31;103203.22;;;14.91;66.52
61337;BME280;47212;41.326;2.104;2024-01-30T17:15:47;103211.09;;;14.88;66.64
61337;BME280;47212;41.326;2.104;2024-01-30T17:20:54;103210.94;;;14.83;67.08
61337;BME280;47212;41.326;2.104;2024-01-30T17:26:01;103218.34;;;14.82;67.43
61337;BME280;47212;41.326;2.104;2024-01-30T17:31:15;103221.53;;;14.79;67.00
61337;BME280;47212;41.326;2.104;2024-01-30T17:36:22;103228.75;;;14.74;67.72
61337;BME280;47212;41.326;2.104;2024-01-30T17:41:33;103227.06;;;14.73;67.74
61337;BME280;47212;41.326;2.104;2024-01-30T17:46:45;103228.59;;;14.69;67.85
61337;BME280;47212;41.326;2.104;2024-01-30T17:51:50;103222.50;;;14.66;68.07
61337;BME280;47212;41.326;2.104;2024-01-30T17:57:07;103230.13;;;14.64;68.09
61337;BME280;47212;41.326;2.104;2024-01-30T18:02:12;103245.13;;;14.62;67.86
61337;BME280;47212;41.326;2.104;2024-01-30T18:07:20;103244.13;;;14.56;68.30
61337;BME280;47212;41.326;2.104;2024-01-30T18:12:28;103246.72;;;14.51;68.09
61337;BME280;47212;41.326;2.104;2024-01-30T18:17:38;103239.56;;;14.50;68.47
61337;BME280;47212;41.326;2.104;2024-01-30T18:22:48;103254.78;;;14.46;68.18
61337;BME280;47212;41.326;2.104;2024-01-30T18:27:59;103254.19;;;14.44;68.71
61337;BME280;47212;41.326;2.104;2024-01-30T18:33:10;103263.47;;;14.43;68.81
61337;BME280;47212;41.326;2.104;2024-01-30T18:38:20;103262.81;;;14.41;68.97
61337;BME280;47212;41.326;2.104;2024-01-30T18:43:33;103263.28;;;14.38;68.97
61337;BME280;47212;41.326;2.104;2024-01-30T18:48:48;103264.78;;;14.34;68.89
61337;BME280;47212;41.326;2.104;2024-01-30T18:53:54;103276.81;;;14.33;69.28
61337;BME280;47212;41.326;2.104;2024-01-30T18:59:01;103274.53;;;14.30;69.42
61337;BME280;47212;41.326;2.104;2024-01-30T19:04:07;103280.22;;;14.28;69.74
61337;BME280;47212;41.326;2.104;2024-01-30T19:09:20;103283.19;;;14.27;69.86
61337;BME280;47212;41.326;2.104;2024-01-30T19:14:28;103287.44;;;14.23;69.90
61337;BME280;47212;41.326;2.104;2024-01-30T19:19:45;103288.75;;;14.20;70.17
61337;BME280;47212;41.326;2.104;2024-01-30T19:24:51;103293.59;;;14.18;70.41
61337;BME280;47212;41.326;2.104;2024-01-30T19:30:13;103286.69;;;14.16;70.96
61337;BME280;47212;41.326;2.104;2024-01-30T19:35:37;103291.75;;;14.12;70.87
61337;BME280;47212;41.326;2.104;2024-01-30T19:41:03;103296.84;;;14.09;71.45
61337;BME280;47212;41.326;2.104;2024-01-30T19:46:39;103300.66;;;14.08;71.30
61337;BME280;47212;41.326;2.104;2024-01-30T19:52:11;103298.38;;;14.05;71.20
61337;BME280;47212;41.326;2.104;2024-01-30T19:57:29;103300.25;;;14.04;71.41
61337;BME280;47212;41.326;2.104;2024-01-30T20:02:33;103296.91;;;14.02;71.43
61337;BME280;47212;41.326;2.104;2024-01-30T20:07:46;103297.75;;;14.02;71.54
61337;BME280;47212;41.326;2.104;2024-01-30T20:12:59;103294.41;;;14.00;71.99
61337;BME280;47212;41.326;2.104;2024-01-30T20:18:04;103299.88;;;14.00;71.75
61337;BME280;47212;41.326;2.104;2024-01-30T20:23:12;103299.47;;;13.97;72.01
61337;BME280;47212;41.326;2.104;2024-01-30T20:28:19;103307.91;;;13.95;72.02
61337;BME280;47212;41.326;2.104;2024-01-30T20:33:28;103308.81;;;13.89;72.04
61337;BME280;47212;41.326;2.104;2024-01-30T20:38:36;103315.34;;;13.82;72.37
61337;BME280;47212;41.326;2.104;2024-01-30T20:43:46;103314.78;;;13.73;72.46
61337;BME280;47212;41.326;2.104;2024-01-30T20:48:52;103322.44;;;13.64;72.24
61337;BME280;47212;41.326;2.104;2024-01-30T20:54:07;103329.66;;;13.52;72.01
61337;BME280;47212;41.326;2.104;2024-01-30T20:59:16;103320.69;;;13.38;72.43
61337;BME280;47212;41.326;2.104;2024-01-30T21:04:21;103332.94;;;13.29;72.16
61337;BME280;47212;41.326;2.104;2024-01-30T21:09:31;103325.19;;;13.20;72.26
61337;BME280;47212;41.326;2.104;2024-01-30T21:14:58;103321.00;;;13.17;72.63
61337;BME280;47212;41.326;2.104;2024-01-30T21:20:13;103323.31;;;13.07;72.79
61337;BME280;47212;41.326;2.104;2024-01-30T21:25:21;103322.47;;;13.00;72.75
61337;BME280;47212;41.326;2.104;2024-01-30T21:30:38;103321.66;;;12.93;73.19
61337;BME280;47212;41.326;2.104;2024-01-30T21:35:46;103319.34;;;12.90;73.26
61337;BME280;47212;41.326;2.104;2024-01-30T21:40:50;103323.78;;;12.84;73.39
61337;BME280;47212;41.326;2.104;2024-01-30T21:45:56;103315.19;;;12.81;73.46
61337;BME280;47212;41.326;2.104;2024-01-30T21:51:04;103314.78;;;12.77;73.71
61337;BME280;47212;41.326;2.104;2024-01-30T21:56:15;103312.69;;;12.72;73.52
61337;BME280;47212;41.326;2.104;2024-01-30T22:01:32;103312.47;;;12.67;73.99
61337;BME280;47212;41.326;2.104;2024-01-30T22:06:53;103312.28;;;12.62;73.92
61337;BME280;47212;41.326;2.104;2024-01-30T22:12:05;103329.09;;;12.59;73.97
61337;BME280;47212;41.326;2.104;2024-01-30T22:17:27;103323.22;;;12.56;74.46
61337;BME280;47212;41.326;2.104;2024-01-30T22:22:35;103327.44;;;12.52;74.12
61337;BME280;47212;41.326;2.104;2024-01-30T22:27:39;103329.13;;;12.53;74.86
61337;BME280;47212;41.326;2.104;2024-01-30T22:32:59;103340.03;;;12.53;74.79
61337;BME280;47212;41.326;2.104;2024-01-30T22:38:06;103338.78;;;12.55;75.27
61337;BME280;47212;41.326;2.104;2024-01-30T22:43:19;103337.72;;;12.56;74.83
61337;BME280;47212;41.326;2.104;2024-01-30T22:48:44;103335.63;;;12.58;74.77
61337;BME280;47212;41.326;2.104;2024-01-30T22:54:08;103324.91;;;12.57;74.96
61337;BME280;47212;41.326;2.104;2024-01-30T23:05:39;103343.59;;;12.66;75.36
61337;BME280;47212;41.326;2.104;2024-01-30T23:11:34;103344.44;;;12.67;75.33
61337;BME280;47212;41.326;2.104;2024-01-30T23:17:08;103339.38;;;12.70;75.85
61337;BME280;47212;41.326;2.104;2024-01-30T23:23:11;103334.53;;;12.72;75.34
61337;BME280;47212;41.326;2.104;2024-01-30T23:28:28;103338.97;;;12.73;75.39
61337;BME280;47212;41.326;2.104;2024-01-30T23:33:42;103333.28;;;12.75;75.60
61337;BME280;47212;41.326;2.104;2024-01-30T23:39:17;103337.06;;;12.74;75.75
61337;BME280;47212;41.326;2.104;2024-01-30T23:45:11;103329.91;;;12.73;75.64
61337;BME280;47212;41.326;2.104;2024-01-30T23:50:41;103337.91;;;12.74;75.24
61337;BME280;47212;41.326;2.104;2024-01-30T23:55:47;103324.88;;;12.76;75.80
